Wheatland, ND

11:42 PM CDT on September 19, 2014 (GMT -0500)
Home of the Absaraka Crows | Change Station
CLOSE
Current Station
Personal Weather Station
Location: Absaraka, ND
Elevation: 1066 ft
Nearby Weather Stations

Elev 1066 ft 46.98 °N, 97.39 °W | Updated 10 seconds ago

Partly Cloudy
Partly Cloudy
65.5 °F
Feels Like 65.5 °F
N
2.2
Wind Variable Wind from NW
Gusts 3.1 mph

Today
High -- | Low -- °F
--% Chance of Precip.
Yesterday
High -- | Low -- °F
Precip. -- in
7:12 AM 7:33 PM
Waning Crescent, 14% visible
Pressure 29.64 in
Visibility 10.0 miles
Clouds Clear
Dew Point 60 °F
Humidity 82%
Rainfall 0.08 in
Snow Depth Not available.
UV 0 out of 12
Pollen 3.60 out of 12
Air Quality Not available.
Flu Activity Not available.
METAR KFAR 200353Z 33011KT 10SM CLR 21/13 A2964 RMK AO2 SLP036 T02110128

More Conditions Fewer Conditions

Pressure 29.64 in
Visibility 10.0 miles
Clouds Clear
Dew Point 60 °F
Humidity 82%
Rainfall 0.08 in
Snow Depth Not available.
UV 0 out of 12
Pollen 3.60 out of 12
Air Quality Not available.
Flu Activity Not available.
METAR KFAR 200353Z 33011KT 10SM CLR 21/13 A2964 RMK AO2 SLP036 T02110128

More Conditions Fewer Conditions

10-Day Weather Forecast

Almanac

Astronomy

Sep. 19, 2014 Rise Set
Actual Time 7:12 AM CDT 7:33 PM CDT
Civil Twilight 6:42 AM CDT 8:03 PM CDT
Nautical Twilight 6:06 AM CDT 8:39 PM CDT
Astronomical Twilight 5:29 AM CDT 9:16 PM CDT
Moon 2:46 AM CDT (9/19) 5:13 PM CDT (9/19)
Length of Visible Light 13h 21m
Length of Day
12h 20m
Tomorrow will be 3m 19s shorter.
Waning Crescent, 14% of the Moon is Illuminated
Sep 20
Waning Crescent
Sep 24
New
Oct 1
First Quarter
Oct 8
Full
Oct 15
Last Quarter

Yesterday's Extremes

State Highs State Lows

Community

WunderPhotos

Upload Photos

1,754,777 photos uploaded!

WunderBlogs® & News

Nearby

Snow Depth

Station Depth Elevation
No new snow has been reported.

Earthquake Activity

City Distance Mag. Time & Date
No recent earthquake activity has been reported nearby.
Minimum magnitude displayed is 2.5.

Coastal Water Temperatures

Place Temperature
No Stations Reporting

Nearby Weather Stations